イヌヴィック の空港の天気 - METARとTAF

イヌヴィック空港 ( CYEV / YEV ) - カナダ ノースウエスト準州イヌヴィック
飛行場実況気象(Metar)
観測時間05/28 17:00 MDT (05/28 23:00 UTC)
風向・風速西北西 2m/s
視程10km以上
天気現象周辺でしゅう雨
全天の4割程度の雲 雲底高度 910m
全天を覆う雲 雲底高度 1520m
気温8℃
湿度53%
気圧1014.3hPa
METARCYEV 282300Z 30003KT 210V020 15SM VCSH SCT030 OVC050 08/M01 A2993 RMK SC3SC5 SLP143
過去の天気等 Google飛行場航空写真 Wunderground天気予報

過去48時間のMETAR

飛行場予報(TAF)
発表時間: 5/28 12:40 MDT (5/28 18:40 UTC)
予報対象時間: 28日13時 MDT ~ 29日1時 MDT
風向・風速不定 2m/s
視程10km以上
少しの雲 雲底高度 370m
全天の8割程度の雲 雲底高度 1830m
28日13時 MDT ~ 29日1時 MDT に一時的に
視程8050m
天気現象弱い雨 もや
全天の4割程度の雲 雲底高度 240m
全天の8割程度の雲 雲底高度 370m
28日16時 MDT ~ 28日18時 MDT に徐々に
風向・風速北東 4m/s
TAF CYEV 281840Z 2819/2907 VRB03KT P6SM FEW012 BKN060
TEMPO 2819/2907 5SM -RA BR SCT008 BKN012
BECMG 2822/2824 05008KT RMK NXT FCST BY 290100Z